createdAt,value
2018-10-19T00:02:41.640Z,9.05
2018-10-19T00:05:24.153Z,9.03
2018-10-19T00:08:07.358Z,8.95
2018-10-19T00:10:49.997Z,8.90
2018-10-19T00:13:32.702Z,8.93
2018-10-19T00:16:15.520Z,8.91
2018-10-19T00:18:58.346Z,8.90
2018-10-19T00:21:41.787Z,8.95
2018-10-19T00:24:24.418Z,9.01
2018-10-19T00:27:07.555Z,9.14
2018-10-19T00:29:50.615Z,9.08
2018-10-19T00:32:33.849Z,9.08
2018-10-19T00:35:16.689Z,9.13
2018-10-19T00:37:59.903Z,9.21
2018-10-19T00:40:42.714Z,9.10
2018-10-19T00:43:25.409Z,9.14
2018-10-19T00:46:08.752Z,9.12
2018-10-19T00:48:51.473Z,9.17
2018-10-19T00:51:34.180Z,9.12
2018-10-19T00:54:18.049Z,9.01
2018-10-19T00:57:01.894Z,8.93
2018-10-19T00:59:44.478Z,8.96
2018-10-19T01:02:28.050Z,8.88
2018-10-19T01:05:10.778Z,8.83
2018-10-19T01:07:53.462Z,8.72
2018-10-19T01:10:37.124Z,8.64
2018-10-19T01:13:20.453Z,8.52
2018-10-19T01:16:03.517Z,8.48
2018-10-19T01:18:46.750Z,8.41
2018-10-19T01:21:29.286Z,8.42
2018-10-19T01:24:12.084Z,8.51
2018-10-19T01:26:55.364Z,8.41
2018-10-19T01:29:38.856Z,8.33
2018-10-19T01:32:22.502Z,8.31
2018-10-19T01:35:05.739Z,8.37
2018-10-19T01:37:48.025Z,8.21
2018-10-19T01:40:31.261Z,8.07
2018-10-19T01:43:14.757Z,8.05
2018-10-19T01:45:58.849Z,8.00
2018-10-19T01:48:41.941Z,7.92
2018-10-19T01:51:25.075Z,7.86
2018-10-19T01:54:08.704Z,7.80
2018-10-19T01:56:52.097Z,7.69
2018-10-19T01:59:35.349Z,7.61
2018-10-19T02:02:19.198Z,7.56
2018-10-19T02:05:01.781Z,7.52
2018-10-19T02:07:44.904Z,7.46
2018-10-19T02:10:28.262Z,7.44
2018-10-19T02:13:11.414Z,7.39
2018-10-19T02:15:55.029Z,7.39
2018-10-19T02:18:38.002Z,7.42
2018-10-19T02:21:20.566Z,7.35
2018-10-19T02:24:04.180Z,7.33
2018-10-19T02:26:47.001Z,7.23
2018-10-19T02:29:30.237Z,7.21
2018-10-19T02:32:14.310Z,7.10
2018-10-19T02:34:57.882Z,7.05
2018-10-19T02:37:41.444Z,7.04
2018-10-19T02:40:43.858Z,7.08
2018-10-19T02:43:26.337Z,7.02
2018-10-19T02:46:09.670Z,6.95
2018-10-19T02:48:53.409Z,6.93
2018-10-19T02:51:37.317Z,6.95
2018-10-19T02:54:19.971Z,6.89
2018-10-19T02:57:03.715Z,6.80
2018-10-19T02:59:46.621Z,6.80
2018-10-19T03:02:29.543Z,6.85
2018-10-19T03:05:13.479Z,6.90
2018-10-19T03:07:56.707Z,6.80
2018-10-19T03:10:39.540Z,6.78
2018-10-19T03:13:22.977Z,6.83
2018-10-19T03:16:05.758Z,6.88
2018-10-19T03:18:48.611Z,6.79
2018-10-19T03:21:31.912Z,6.83
2018-10-19T03:24:15.083Z,6.80
2018-10-19T03:26:57.889Z,6.78
2018-10-19T03:29:41.055Z,6.76
2018-10-19T03:32:23.918Z,6.83
2018-10-19T03:35:07.663Z,6.84
2018-10-19T03:37:50.682Z,6.88
2018-10-19T03:40:33.417Z,6.99
2018-10-19T03:43:16.613Z,7.05
2018-10-19T03:45:59.953Z,7.11
2018-10-19T03:48:43.083Z,7.16
2018-10-19T03:51:26.190Z,7.26
2018-10-19T03:54:08.949Z,7.37
2018-10-19T03:56:51.920Z,7.44
2018-10-19T03:59:35.348Z,7.48
2018-10-19T04:02:17.777Z,7.45
2018-10-19T04:05:00.632Z,7.48
2018-10-19T04:07:43.518Z,7.52
2018-10-19T04:10:26.434Z,7.58
2018-10-19T04:13:09.270Z,7.67
2018-10-19T04:15:52.157Z,7.76
2018-10-19T04:18:35.069Z,7.79
2018-10-19T04:21:18.111Z,7.76
2018-10-19T04:24:01.693Z,7.75
2018-10-19T04:26:44.145Z,7.79
2018-10-19T04:29:27.827Z,7.67
2018-10-19T04:32:10.817Z,7.61
2018-10-19T04:34:53.827Z,7.57
2018-10-19T04:37:36.940Z,7.53
2018-10-19T04:40:21.714Z,7.46
2018-10-19T04:43:04.424Z,7.50
2018-10-19T04:45:48.205Z,7.47
2018-10-19T04:48:31.379Z,7.45
2018-10-19T04:51:14.455Z,7.43
2018-10-19T04:53:57.738Z,7.36
2018-10-19T04:56:40.374Z,7.38
2018-10-19T04:59:23.582Z,7.31
2018-10-19T05:02:06.900Z,7.31
2018-10-19T05:04:50.208Z,7.25
2018-10-19T05:07:33.045Z,7.29
2018-10-19T05:10:16.408Z,7.31
2018-10-19T05:12:59.278Z,7.34
2018-10-19T05:15:42.142Z,7.48
2018-10-19T05:18:25.185Z,7.68
2018-10-19T05:21:08.086Z,7.88
2018-10-19T05:23:51.423Z,7.90
2018-10-19T05:26:34.104Z,7.94
2018-10-19T05:29:17.335Z,7.93
2018-10-19T05:32:00.499Z,7.79
2018-10-19T05:34:43.954Z,7.74
2018-10-19T05:37:26.505Z,7.75
2018-10-19T05:40:10.105Z,7.73
2018-10-19T05:42:54.008Z,7.68
2018-10-19T05:45:37.663Z,7.71
2018-10-19T05:48:20.973Z,7.71
2018-10-19T05:51:04.877Z,7.73
2018-10-19T05:53:47.949Z,7.74
2018-10-19T05:56:31.025Z,7.80
2018-10-19T05:59:14.113Z,7.89
2018-10-19T06:01:57.627Z,8.18
2018-10-19T06:04:40.805Z,8.11
2018-10-19T06:07:24.845Z,8.01
2018-10-19T06:10:07.989Z,8.33
2018-10-19T06:12:50.845Z,8.38
2018-10-19T06:15:34.157Z,8.31
2018-10-19T06:18:16.750Z,8.34
2018-10-19T06:21:00.117Z,8.31
2018-10-19T06:23:43.321Z,8.38
2018-10-19T06:26:26.019Z,8.40
2018-10-19T06:29:08.458Z,8.22
2018-10-19T06:31:51.449Z,8.29
2018-10-19T06:34:34.245Z,8.35
2018-10-19T06:37:16.787Z,8.36
2018-10-19T06:39:59.411Z,8.54
2018-10-19T06:42:42.618Z,8.52
2018-10-19T06:45:25.836Z,8.44
2018-10-19T06:48:08.782Z,8.54
2018-10-19T06:50:52.299Z,8.75
2018-10-19T06:53:34.689Z,8.68
2018-10-19T06:56:17.683Z,8.81
2018-10-19T06:59:01.272Z,8.95
2018-10-19T07:01:45.525Z,8.86
2018-10-19T07:04:29.029Z,9.10
2018-10-19T07:07:12.703Z,8.92
2018-10-19T07:09:56.001Z,8.66
2018-10-19T07:12:38.856Z,8.61
2018-10-19T07:15:21.420Z,8.88
2018-10-19T07:18:06.873Z,9.49
2018-10-19T07:20:50.120Z,10.25
2018-10-19T07:23:32.741Z,10.12
2018-10-19T07:26:15.839Z,9.49
2018-10-19T07:28:59.578Z,9.43
2018-10-19T07:31:42.849Z,9.91
2018-10-19T07:34:25.966Z,10.37
2018-10-19T07:37:08.813Z,10.32
2018-10-19T07:39:51.620Z,9.83
2018-10-19T07:42:34.643Z,10.02
2018-10-19T07:45:17.973Z,9.76
2018-10-19T07:48:00.615Z,10.29
2018-10-19T07:50:44.535Z,9.91
2018-10-19T07:53:27.335Z,10.17
2018-10-19T07:56:10.000Z,10.95
2018-10-19T07:58:52.867Z,10.60
2018-10-19T08:01:35.289Z,11.00
2018-10-19T08:04:20.764Z,11.26
2018-10-19T08:07:03.380Z,11.07
2018-10-19T08:09:46.578Z,10.97
2018-10-19T08:12:29.957Z,11.09
2018-10-19T08:15:13.025Z,11.04
2018-10-19T08:17:55.443Z,10.97
2018-10-19T08:20:38.985Z,11.09
2018-10-19T08:23:22.197Z,10.34
2018-10-19T08:26:05.082Z,10.44
2018-10-19T08:28:48.049Z,10.38
2018-10-19T08:31:30.241Z,10.88
2018-10-19T08:34:13.700Z,11.34
2018-10-19T08:36:56.398Z,11.47
2018-10-19T08:39:38.945Z,11.28
2018-10-19T08:42:21.835Z,11.04
2018-10-19T08:45:04.591Z,11.73
2018-10-19T08:47:48.088Z,11.13
2018-10-19T08:50:32.162Z,11.11
2018-10-19T08:53:15.556Z,11.53
2018-10-19T08:55:58.481Z,11.68
2018-10-19T08:58:41.392Z,12.07
2018-10-19T09:01:24.517Z,12.16
2018-10-19T09:04:07.297Z,11.94
2018-10-19T09:06:50.650Z,12.08
2018-10-19T09:09:33.465Z,12.02
2018-10-19T09:12:16.727Z,12.29
2018-10-19T09:15:09.513Z,12.19
2018-10-19T09:17:52.169Z,12.30
2018-10-19T09:20:35.355Z,13.09
2018-10-19T09:23:27.145Z,13.47
2018-10-19T09:26:09.449Z,13.73
2018-10-19T09:28:53.302Z,13.03
2018-10-19T09:31:36.368Z,13.08
2018-10-19T09:34:19.405Z,13.94
2018-10-19T09:37:03.661Z,14.23
2018-10-19T09:39:46.388Z,14.01
2018-10-19T09:42:29.505Z,14.89
2018-10-19T09:45:12.716Z,14.23
2018-10-19T09:47:55.286Z,15.71
2018-10-19T09:50:38.457Z,15.16
2018-10-19T09:53:21.704Z,14.22
2018-10-19T09:56:05.467Z,14.70
2018-10-19T09:58:48.334Z,15.46
2018-10-19T10:01:31.177Z,15.18
2018-10-19T10:04:14.094Z,15.86
2018-10-19T10:06:56.946Z,15.60
2018-10-19T10:09:40.127Z,15.74
2018-10-19T10:12:27.161Z,15.63
2018-10-19T10:15:10.331Z,16.42
2018-10-19T10:17:52.585Z,15.76
2018-10-19T10:20:35.193Z,16.24
2018-10-19T10:23:27.785Z,15.79
2018-10-19T10:26:18.809Z,16.00
2018-10-19T10:29:01.290Z,15.77
2018-10-19T10:31:44.618Z,15.98
2018-10-19T10:34:27.824Z,16.06
2018-10-19T10:37:10.643Z,16.27
2018-10-19T10:39:53.582Z,15.34
2018-10-19T10:42:36.793Z,15.34
2018-10-19T10:45:19.673Z,15.03
2018-10-19T10:48:02.418Z,14.86
2018-10-19T10:50:46.168Z,15.91
2018-10-19T10:53:29.314Z,16.28
2018-10-19T10:56:12.304Z,15.72
2018-10-19T10:58:55.661Z,15.70
2018-10-19T11:01:39.089Z,15.83
2018-10-19T11:04:22.197Z,15.45
2018-10-19T11:07:05.643Z,15.62
2018-10-19T11:09:49.144Z,16.11
2018-10-19T11:12:31.758Z,16.33
2018-10-19T11:15:15.541Z,16.65
2018-10-19T11:17:58.032Z,15.83
2018-10-19T11:20:41.959Z,16.27
2018-10-19T11:23:25.428Z,15.66
2018-10-19T11:26:09.644Z,16.47
2018-10-19T11:28:52.765Z,16.84
2018-10-19T11:31:36.196Z,15.70
2018-10-19T11:34:19.658Z,15.43
2018-10-19T11:37:03.220Z,15.71
2018-10-19T11:39:58.186Z,16.10
2018-10-19T11:42:41.193Z,17.07
2018-10-19T11:45:34.777Z,16.94
2018-10-19T11:48:18.365Z,17.27
2018-10-19T11:51:01.316Z,18.46
2018-10-19T11:53:44.342Z,18.52
2018-10-19T11:56:27.880Z,18.18
2018-10-19T11:59:11.650Z,17.41
2018-10-19T12:01:54.529Z,17.36
2018-10-19T12:04:37.543Z,17.38
2018-10-19T12:07:20.985Z,17.85
2018-10-19T12:10:03.767Z,18.53
2018-10-19T12:12:46.306Z,18.31
2018-10-19T12:15:29.985Z,18.14
2018-10-19T12:18:13.274Z,17.54
2018-10-19T12:20:56.692Z,18.22
2018-10-19T12:23:40.241Z,17.53
2018-10-19T12:26:23.742Z,17.35
2018-10-19T12:29:06.416Z,18.22
2018-10-19T12:32:15.644Z,19.15
2018-10-19T12:36:14.150Z,18.15
2018-10-19T12:38:56.825Z,17.94
2018-10-19T12:41:40.937Z,18.91
2018-10-19T12:44:23.490Z,18.16
2018-10-19T12:47:17.637Z,17.61
2018-10-19T12:50:01.104Z,17.61
2018-10-19T12:52:43.596Z,18.12
2018-10-19T12:55:27.335Z,18.97
2018-10-19T12:58:10.661Z,17.96
2018-10-19T13:01:00.785Z,17.78
2018-10-19T13:03:49.761Z,18.02
2018-10-19T13:06:33.247Z,19.28
2018-10-19T13:09:15.995Z,19.21
2018-10-19T13:11:59.358Z,18.92
2018-10-19T13:14:42.862Z,19.24
2018-10-19T13:17:25.248Z,19.73
2018-10-19T13:20:08.254Z,19.06
2018-10-19T13:22:51.000Z,18.50
2018-10-19T13:25:33.784Z,18.54
2018-10-19T13:28:58.832Z,17.92
2018-10-19T13:31:55.275Z,18.48
2018-10-19T13:34:38.883Z,18.56
2018-10-19T13:37:21.630Z,18.51
2018-10-19T13:40:04.569Z,18.66
2018-10-19T13:42:47.824Z,17.77
2018-10-19T13:45:30.791Z,17.02
2018-10-19T13:48:14.657Z,16.55
2018-10-19T13:50:57.727Z,16.29
2018-10-19T13:53:40.814Z,17.31
2018-10-19T13:56:23.517Z,18.31
2018-10-19T13:59:07.352Z,18.38
2018-10-19T14:01:51.565Z,17.52
2018-10-19T14:04:35.337Z,16.57
2018-10-19T14:07:18.281Z,16.52
2018-10-19T14:10:03.442Z,16.18
2018-10-19T14:12:46.222Z,16.22
2018-10-19T14:15:29.403Z,16.54
2018-10-19T14:18:13.773Z,16.82
2018-10-19T14:20:56.714Z,16.31
2018-10-19T14:23:47.491Z,16.99
2018-10-19T14:26:30.812Z,17.15
2018-10-19T14:29:15.034Z,16.57
2018-10-19T14:31:58.345Z,16.39
2018-10-19T14:34:41.820Z,16.69
2018-10-19T14:37:25.934Z,16.57
2018-10-19T14:40:12.058Z,16.54
2018-10-19T14:42:56.074Z,16.57
2018-10-19T14:45:39.923Z,16.68
2018-10-19T14:48:22.377Z,16.49
2018-10-19T14:51:05.777Z,16.13
2018-10-19T14:53:48.820Z,15.78
2018-10-19T14:56:34.181Z,15.65
2018-10-19T14:59:20.243Z,15.64
2018-10-19T15:02:06.936Z,15.47
2018-10-19T15:04:50.178Z,15.25
2018-10-19T15:07:37.136Z,15.01
2018-10-19T15:10:22.824Z,14.87
2018-10-19T15:13:08.184Z,14.71
2018-10-19T15:15:51.453Z,14.75
2018-10-19T15:18:34.900Z,14.62
2018-10-19T15:21:18.114Z,14.60
2018-10-19T15:24:01.052Z,14.64
2018-10-19T15:26:44.768Z,14.67
2018-10-19T15:29:27.628Z,14.74
2018-10-19T15:32:10.493Z,14.59
2018-10-19T15:34:53.649Z,14.51
2018-10-19T15:37:37.078Z,14.52
2018-10-19T15:40:19.613Z,14.56
2018-10-19T15:43:04.514Z,14.56
2018-10-19T15:45:46.861Z,14.42
2018-10-19T15:48:30.013Z,14.40
2018-10-19T15:51:13.975Z,14.31
2018-10-19T15:53:56.593Z,14.28
2018-10-19T15:56:39.766Z,14.06
2018-10-19T15:59:23.114Z,14.04
2018-10-19T16:02:06.056Z,14.03
2018-10-19T16:04:49.346Z,13.82
2018-10-19T16:07:32.269Z,13.71
2018-10-19T16:10:15.604Z,13.66
2018-10-19T16:12:58.205Z,13.61
2018-10-19T16:15:40.633Z,13.57
2018-10-19T16:18:23.103Z,13.56
2018-10-19T16:21:05.848Z,13.53
2018-10-19T16:23:48.935Z,13.56
2018-10-19T16:26:32.744Z,13.50
2018-10-19T16:29:15.417Z,13.53
2018-10-19T16:31:58.186Z,13.45
2018-10-19T16:34:41.691Z,13.36
2018-10-19T16:37:24.570Z,13.25
2018-10-19T16:40:07.766Z,13.17
2018-10-19T16:42:50.833Z,13.05
2018-10-19T16:45:33.631Z,12.97
2018-10-19T16:48:17.101Z,12.90
2018-10-19T16:51:00.450Z,13.02
2018-10-19T16:53:43.489Z,13.01
2018-10-19T16:56:26.030Z,12.86
2018-10-19T16:59:09.540Z,12.79
2018-10-19T17:01:52.581Z,12.82
2018-10-19T17:04:35.857Z,12.75
2018-10-19T17:07:19.229Z,12.68
2018-10-19T17:10:01.751Z,12.70
2018-10-19T17:12:44.471Z,12.75
2018-10-19T17:15:28.394Z,12.69
2018-10-19T17:18:11.642Z,12.67
2018-10-19T17:20:56.126Z,12.68
2018-10-19T17:23:39.667Z,12.72
2018-10-19T17:26:22.645Z,12.69
2018-10-19T17:29:06.917Z,12.75
2018-10-19T17:31:49.196Z,12.75
2018-10-19T17:34:32.125Z,12.82
2018-10-19T17:37:16.518Z,12.79
2018-10-19T17:39:59.107Z,12.97
2018-10-19T17:42:42.413Z,12.93
2018-10-19T17:45:26.050Z,12.85
2018-10-19T17:48:09.291Z,12.76
2018-10-19T17:50:52.569Z,12.74
2018-10-19T17:53:35.700Z,12.71
2018-10-19T17:56:18.766Z,12.71
2018-10-19T17:59:01.995Z,12.59
2018-10-19T18:01:54.316Z,12.54
2018-10-19T18:04:37.130Z,12.44
2018-10-19T18:07:19.721Z,12.44
2018-10-19T18:10:02.384Z,12.35
2018-10-19T18:12:46.020Z,12.22
2018-10-19T18:15:29.203Z,12.18
2018-10-19T18:18:12.036Z,12.27
2018-10-19T18:20:54.934Z,12.16
2018-10-19T18:23:37.807Z,11.90
2018-10-19T18:26:20.905Z,11.64
2018-10-19T18:29:03.546Z,11.55
2018-10-19T18:31:46.599Z,11.56
2018-10-19T18:34:29.266Z,11.59
2018-10-19T18:37:12.498Z,11.64
2018-10-19T18:39:55.838Z,11.73
2018-10-19T18:42:39.585Z,11.72
2018-10-19T18:45:23.010Z,11.64
2018-10-19T18:48:06.744Z,11.66
2018-10-19T18:50:50.389Z,11.67
2018-10-19T18:53:38.317Z,11.66
2018-10-19T18:56:21.369Z,11.75
2018-10-19T18:59:04.773Z,11.61
2018-10-19T19:01:47.969Z,11.41
2018-10-19T19:04:30.892Z,11.30
2018-10-19T19:07:14.313Z,11.28
2018-10-19T19:10:02.292Z,11.29
2018-10-19T19:12:46.059Z,11.28
2018-10-19T19:15:29.406Z,11.25
2018-10-19T19:18:12.463Z,11.20
2018-10-19T19:20:56.029Z,11.15
2018-10-19T19:23:44.583Z,11.17
2018-10-19T19:26:28.567Z,11.16
2018-10-19T19:29:11.635Z,11.21
2018-10-19T19:31:57.252Z,11.19
2018-10-19T19:34:41.073Z,11.05
2018-10-19T19:37:24.230Z,10.97
2018-10-19T19:40:07.812Z,10.89
2018-10-19T19:42:53.262Z,10.79
2018-10-19T19:45:36.817Z,10.80
2018-10-19T19:48:24.918Z,10.69
2018-10-19T19:51:07.573Z,10.41
2018-10-19T19:53:50.579Z,10.38
2018-10-19T19:56:34.113Z,10.49
2018-10-19T19:59:17.432Z,10.26
2018-10-19T20:02:00.429Z,9.99
2018-10-19T20:04:44.170Z,9.85
2018-10-19T20:07:27.431Z,9.86
2018-10-19T20:10:10.566Z,9.89
2018-10-19T20:12:53.805Z,9.79
2018-10-19T20:15:36.812Z,9.69
2018-10-19T20:18:20.777Z,9.61
2018-10-19T20:21:04.382Z,9.59
2018-10-19T20:23:46.826Z,9.62
2018-10-19T20:26:29.840Z,9.65
2018-10-19T20:29:13.252Z,9.84
2018-10-19T20:31:56.093Z,9.78
2018-10-19T20:34:39.323Z,9.45
2018-10-19T20:37:22.009Z,9.19
2018-10-19T20:40:05.905Z,9.13
2018-10-19T20:42:49.129Z,9.01
2018-10-19T20:45:32.196Z,8.96
2018-10-19T20:48:15.678Z,9.00
2018-10-19T20:50:59.180Z,9.01
2018-10-19T20:53:42.429Z,9.01
2018-10-19T20:56:25.316Z,8.99
2018-10-19T20:59:07.717Z,9.05
2018-10-19T21:01:50.866Z,9.01
2018-10-19T21:04:35.810Z,8.94
2018-10-19T21:07:19.370Z,8.84
2018-10-19T21:10:02.769Z,8.85
2018-10-19T21:12:45.986Z,8.83
2018-10-19T21:15:29.501Z,8.78
2018-10-19T21:18:12.562Z,8.69
2018-10-19T21:20:56.116Z,8.56
2018-10-19T21:23:39.474Z,8.49
2018-10-19T21:26:22.495Z,8.40
2018-10-19T21:29:06.512Z,8.36
2018-10-19T21:31:50.581Z,8.36
2018-10-19T21:34:35.187Z,8.32
2018-10-19T21:37:19.111Z,8.42
2018-10-19T21:40:02.073Z,8.37
2018-10-19T21:42:46.018Z,8.29
2018-10-19T21:45:28.877Z,8.36
2018-10-19T21:48:12.407Z,8.45
2018-10-19T21:50:56.233Z,8.45
2018-10-19T21:53:49.026Z,8.43
2018-10-19T21:56:33.365Z,8.53
2018-10-19T21:59:17.671Z,8.57
2018-10-19T22:02:20.392Z,8.83
2018-10-19T22:05:04.080Z,8.89
2018-10-19T22:07:46.727Z,8.55
2018-10-19T22:10:29.781Z,8.43
2018-10-19T22:13:12.338Z,8.32
2018-10-19T22:15:55.354Z,8.20
2018-10-19T22:18:38.346Z,8.08
2018-10-19T22:21:20.878Z,8.03
2018-10-19T22:24:03.458Z,8.00
2018-10-19T22:26:46.450Z,8.00
2018-10-19T22:29:29.197Z,8.06
2018-10-19T22:32:12.803Z,8.01
2018-10-19T22:34:55.601Z,7.95
2018-10-19T22:37:38.457Z,7.90
2018-10-19T22:40:21.714Z,7.85
2018-10-19T22:43:04.785Z,7.75
2018-10-19T22:45:48.333Z,7.67
2018-10-19T22:48:31.133Z,7.79
2018-10-19T22:51:14.277Z,7.69
2018-10-19T22:53:57.210Z,7.50
2018-10-19T22:56:40.223Z,7.35
2018-10-19T22:59:23.139Z,7.25
2018-10-19T23:02:06.973Z,7.18
2018-10-19T23:04:49.658Z,7.14
2018-10-19T23:07:31.961Z,7.11
2018-10-19T23:10:14.637Z,7.08
2018-10-19T23:12:57.528Z,7.01
2018-10-19T23:15:40.067Z,7.00
2018-10-19T23:18:22.640Z,6.97
2018-10-19T23:21:05.462Z,7.00
2018-10-19T23:23:48.103Z,6.92
2018-10-19T23:26:30.413Z,6.88
2018-10-19T23:29:13.130Z,6.86
2018-10-19T23:31:55.989Z,6.81
2018-10-19T23:34:38.880Z,6.74
2018-10-19T23:41:07.724Z,6.58
2018-10-19T23:43:51.561Z,6.55
2018-10-19T23:46:35.543Z,6.47
2018-10-19T23:49:19.277Z,6.43
2018-10-19T23:52:02.596Z,6.40
2018-10-19T23:54:46.753Z,6.58
2018-10-19T23:57:30.420Z,6.73
